• Join FlightAware (Why Join?)
  • Login
  • US Flag 
12:23AM EDT


 

Airport Tracker/Info


-or-


 

Live Flight TrackerFlight Track Log ✈ EJA122 ✈ 18-Sep-2013 ✈ KICT - KICT

Flight Track Log - Related Links

Times and Time Zones

All times are in EDT time to prevent confusion due to time zone crossing. See the EJA122 flight status page for this flight to view local times or setup timezone preferences in your user account.

Time Position Orientation Groundspeed Altitude Reporting Facility
EDT Latitude Longitude Course Direction KTS MPH feet Rate Location/Type
07:19PM 37.6447 -97.4272 197° South 144 166 1,800  Level Kansas City Center
07:20PM 37.6000 -97.4447 197° South 175 201 4,800 2,940 Climbing Kansas City Center
07:21PM 37.5514 -97.4628 196° South 188 216 7,700 2,400 Climbing Kansas City Center
07:22PM 37.4897 -97.4775 191° South 195 224 9,900 1,920 Climbing Kansas City Center
07:23PM 37.4733 -97.5458 253° West 240 276 11,900 1,740 Climbing Kansas City Center
07:24PM 37.4800 -97.6372 275° West 270 311 13,500 1,380 Climbing Kansas City Center
07:25PM 37.4900 -97.7411 277° West 308 354 14,800 720 Climbing Kansas City Center
07:26PM 37.5328 -97.8375 299° West 363 418 15,000 60 Climbing Kansas City Center
07:27PM 37.6169 -97.8381 360° North 410 472 15,000  Level Kansas City Center
07:28PM 37.7311 -97.8239 North 419 482 15,000 -1,080 Level Kansas City Center
07:29PM 37.8131 -97.7375 40° Northeast 417 480 13,000 -2,640 Descending Kansas City Center
07:30PM 37.8847 -97.6497 44° Northeast 336 387 10,000 -2,940 Descending Kansas City Center
07:31PM 37.9025 -97.5303 79° East 302 348 6,900 -2,760 Descending Kansas City Center
07:32PM 37.8850 -97.4350 103° East 266 306 4,200 -1,920 Descending Kansas City Center
07:33PM 37.8297 -97.4064 158° South 203 234 3,100 -600 Descending Kansas City Center
07:34PM 37.7886 -97.3942 167° South 116 133 3,000 -120 Descending Kansas City Center
07:35PM 37.7542 -97.3864 170° South 101 116 2,900 -240 Descending Kansas City Center
07:36PM 37.7231 -97.3911 187° South 119 137 2,500 -480 Descending Kansas City Center
07:37PM 37.6950 -97.4036 199° South 116 133 2,000 -600 Descending Kansas City Center
07:38PM 37.6586 -97.4197 199° South 119 137 1,300 -660 Descending Kansas City Center